createdAt,value
2023-04-10T00:01:46.529Z,190.27
2023-04-10T00:03:48.115Z,185.73
2023-04-10T00:05:49.666Z,183.18
2023-04-10T00:07:51.049Z,192.18
2023-04-10T00:09:52.439Z,175.75
2023-04-10T00:11:54.400Z,185.15
2023-04-10T00:13:55.947Z,168.93
2023-04-10T00:15:58.162Z,177.75
2023-04-10T00:17:59.603Z,178.43
2023-04-10T00:20:01.305Z,160.07
2023-04-10T00:22:03.039Z,170.40
2023-04-10T00:24:05.401Z,177.60
2023-04-10T00:26:07.115Z,181.18
2023-04-10T00:28:08.506Z,173.27
2023-04-10T00:30:10.107Z,176.98
2023-04-10T00:32:11.649Z,187.40
2023-04-10T00:34:14.177Z,177.45
2023-04-10T00:36:16.413Z,176.77
2023-04-10T00:38:17.942Z,192.93
2023-04-10T00:40:19.335Z,188.02
2023-04-10T00:42:20.902Z,192.63
2023-04-10T00:44:22.442Z,193.98
2023-04-10T00:46:24.219Z,194.85
2023-04-10T00:48:26.290Z,198.07
2023-04-10T00:50:27.685Z,199.90
2023-04-10T00:52:29.106Z,201.80
2023-04-10T00:54:31.310Z,205.65
2023-04-10T00:56:33.548Z,214.95
2023-04-10T00:58:34.954Z,223.77
2023-04-10T01:00:36.428Z,213.43
2023-04-10T01:02:38.263Z,223.15
2023-04-10T01:04:40.059Z,234.15
2023-04-10T01:06:58.679Z,229.40
2023-04-10T01:09:06.386Z,222.60
2023-04-10T01:11:13.620Z,216.73
2023-04-10T01:13:35.366Z,208.60
2023-04-10T01:15:52.393Z,208.48
2023-04-10T01:17:58.261Z,228.25
2023-04-10T01:20:07.082Z,208.60
2023-04-10T01:22:11.976Z,218.93
2023-04-10T01:24:31.930Z,210.20
2023-04-10T01:26:43.162Z,224.57
2023-04-10T01:28:44.558Z,224.70
2023-04-10T01:30:53.921Z,242.90
2023-04-10T01:32:57.099Z,255.73
2023-04-10T01:35:00.336Z,245.75
2023-04-10T01:37:03.916Z,248.23
2023-04-10T01:39:05.858Z,252.90
2023-04-10T01:41:07.503Z,242.30
2023-04-10T01:43:10.332Z,259.40
2023-04-10T01:45:13.841Z,238.43
2023-04-10T01:47:16.561Z,231.60
2023-04-10T01:49:18.017Z,222.85
2023-04-10T01:51:19.436Z,221.25
2023-04-10T01:53:21.798Z,209.18
2023-04-10T01:55:24.244Z,229.57
2023-04-10T01:57:26.004Z,225.77
2023-04-10T01:59:27.490Z,223.02
2023-04-10T02:01:30.489Z,179.10
2023-04-10T02:03:32.925Z,223.75
2023-04-10T02:05:41.882Z,222.07
2023-04-10T02:07:46.430Z,229.95
2023-04-10T02:09:54.646Z,219.68
2023-04-10T02:11:59.360Z,236.70
2023-04-10T02:14:04.136Z,234.82
2023-04-10T02:16:07.093Z,228.38
2023-04-10T02:18:10.192Z,231.45
2023-04-10T02:20:12.503Z,224.50
2023-04-10T02:22:13.979Z,245.73
2023-04-10T02:24:15.660Z,235.68
2023-04-10T02:26:17.072Z,253.38
2023-04-10T02:28:18.522Z,273.23
2023-04-10T02:30:19.950Z,256.23
2023-04-10T02:32:21.664Z,261.92
2023-04-10T02:34:23.089Z,256.45
2023-04-10T02:36:24.624Z,297.35
2023-04-10T02:38:26.377Z,303.52
2023-04-10T02:40:27.815Z,304.10
2023-04-10T02:42:29.229Z,276.35
2023-04-10T02:44:30.777Z,253.30
2023-04-10T02:46:32.293Z,277.88
2023-04-10T02:48:33.701Z,260.60
2023-04-10T02:50:35.117Z,267.35
2023-04-10T02:52:36.680Z,298.88
2023-04-10T02:54:38.140Z,316.65
2023-04-10T02:56:39.562Z,310.27
2023-04-10T02:58:45.481Z,355.73
2023-04-10T03:00:50.839Z,304.45
2023-04-10T03:02:53.726Z,303.25
2023-04-10T03:04:55.541Z,301.38
2023-04-10T03:06:57.101Z,363.02
2023-04-10T03:08:58.556Z,317.70
2023-04-10T03:10:59.972Z,379.50
2023-04-10T03:13:01.431Z,414.52
2023-04-10T03:15:02.905Z,397.23
2023-04-10T03:17:04.316Z,433.77
2023-04-10T03:19:05.781Z,400.75
2023-04-10T03:21:07.414Z,270.58
2023-04-10T03:23:08.948Z,305.13
2023-04-10T03:25:10.555Z,406.60
2023-04-10T03:27:11.953Z,362.27
2023-04-10T03:29:18.872Z,322.10
2023-04-10T03:31:20.584Z,203.70
2023-04-10T03:33:22.172Z,301.10
2023-04-10T03:35:23.614Z,401.05
2023-04-10T03:37:25.717Z,392.08
2023-04-10T03:39:27.142Z,381.17
2023-04-10T03:41:28.520Z,293.10
2023-04-10T03:43:31.095Z,266.77
2023-04-10T03:45:32.541Z,259.90
2023-04-10T03:47:34.518Z,317.08
2023-04-10T03:49:36.016Z,313.02
2023-04-10T03:51:37.509Z,286.58
2023-04-10T03:53:38.932Z,283.60
2023-04-10T03:55:41.158Z,311.92
2023-04-10T03:57:42.570Z,336.17
2023-04-10T03:59:44.136Z,344.02
2023-04-10T04:01:45.733Z,310.52
2023-04-10T04:03:47.381Z,361.67
2023-04-10T04:05:48.929Z,329.83
2023-04-10T04:07:50.383Z,396.30
2023-04-10T04:09:51.828Z,278.50
2023-04-10T04:11:53.203Z,372.52
2023-04-10T04:13:54.844Z,359.42
2023-04-10T04:15:56.406Z,394.08
2023-04-10T04:17:57.988Z,348.02
2023-04-10T04:19:59.463Z,389.65
2023-04-10T04:22:01.089Z,373.38
2023-04-10T04:24:02.542Z,371.55
2023-04-10T04:26:04.035Z,392.42
2023-04-10T04:28:05.818Z,422.15
2023-04-10T04:30:07.528Z,422.15
2023-04-10T04:32:09.117Z,349.45
2023-04-10T04:34:10.610Z,462.90
2023-04-10T04:36:12.035Z,454.92
2023-04-10T04:38:13.666Z,531.15
2023-04-10T04:40:15.415Z,421.33
2023-04-10T04:42:16.873Z,430.40
2023-04-10T04:44:19.306Z,376.73
2023-04-10T04:46:20.816Z,487.17
2023-04-10T04:48:22.224Z,384.75
2023-04-10T04:50:23.611Z,428.02
2023-04-10T04:52:25.722Z,374.60
2023-04-10T04:54:27.126Z,421.25
2023-04-10T04:56:28.499Z,392.73
2023-04-10T04:58:29.940Z,439.30
2023-04-10T05:00:31.339Z,378.15
2023-04-10T05:02:32.877Z,385.98
2023-04-10T05:04:35.062Z,344.02
2023-04-10T05:06:37.012Z,338.95
2023-04-10T05:08:38.415Z,343.00
2023-04-10T05:10:39.839Z,375.85
2023-04-10T05:12:43.191Z,322.67
2023-04-10T05:14:45.063Z,250.57
2023-04-10T05:16:46.456Z,295.25
2023-04-10T05:18:48.005Z,263.33
2023-04-10T05:20:49.945Z,289.40
2023-04-10T05:22:53.034Z,281.08
2023-04-10T05:24:55.402Z,268.20
2023-04-10T05:26:57.811Z,231.60
2023-04-10T05:28:59.220Z,247.93
2023-04-10T05:31:00.700Z,251.55
2023-04-10T05:33:02.257Z,226.02
2023-04-10T05:35:03.790Z,244.18
2023-04-10T05:37:05.312Z,234.98
2023-04-10T05:39:06.750Z,252.45
2023-04-10T05:41:08.155Z,283.90
2023-04-10T05:43:09.723Z,291.13
2023-04-10T05:45:11.185Z,269.92
2023-04-10T05:47:12.660Z,305.05
2023-04-10T05:49:14.050Z,284.58
2023-04-10T05:51:15.442Z,253.60
2023-04-10T05:53:19.646Z,240.15
2023-04-10T05:55:21.017Z,242.65
2023-04-10T05:57:23.705Z,201.40
2023-04-10T05:59:25.365Z,246.02
2023-04-10T06:01:26.846Z,257.02
2023-04-10T06:03:30.546Z,235.00
2023-04-10T06:05:32.294Z,242.15
2023-04-10T06:07:33.853Z,230.73
2023-04-10T06:09:35.401Z,225.73
2023-04-10T06:11:36.814Z,209.02
2023-04-10T06:13:38.249Z,218.85
2023-04-10T06:15:39.662Z,202.38
2023-04-10T06:17:44.428Z,198.23
2023-04-10T06:19:46.058Z,181.68
2023-04-10T06:21:47.518Z,180.23
2023-04-10T06:23:48.936Z,164.38
2023-04-10T06:25:50.362Z,148.35
2023-04-10T06:27:51.850Z,150.38
2023-04-10T06:29:53.347Z,141.25
2023-04-10T06:31:54.875Z,102.28
2023-04-10T06:33:56.335Z,124.53
2023-04-10T06:35:58.757Z,137.50
2023-04-10T06:38:00.408Z,119.30
2023-04-10T06:40:02.575Z,118.03
2023-04-10T06:42:04.931Z,103.70
2023-04-10T06:44:06.415Z,110.10
2023-04-10T06:46:07.958Z,100.80
2023-04-10T06:48:09.438Z,96.20
2023-04-10T06:50:10.936Z,103.53
2023-04-10T06:52:12.362Z,104.07
2023-04-10T06:54:13.994Z,91.13
2023-04-10T06:56:15.580Z,109.22
2023-04-10T06:58:17.598Z,113.90
2023-04-10T07:00:19.441Z,88.68
2023-04-10T07:02:21.015Z,101.43
2023-04-10T07:04:22.520Z,111.80
2023-04-10T07:06:24.013Z,106.47
2023-04-10T07:08:25.482Z,96.22
2023-04-10T07:10:26.915Z,90.63
2023-04-10T07:12:28.897Z,74.78
2023-04-10T07:14:31.372Z,106.60
2023-04-10T07:16:32.944Z,106.25
2023-04-10T07:18:35.561Z,97.25
2023-04-10T07:20:36.934Z,96.82
2023-04-10T07:22:38.344Z,112.30
2023-04-10T07:24:39.917Z,97.03
2023-04-10T07:26:41.333Z,76.85
2023-04-10T07:28:42.783Z,102.85
2023-04-10T07:30:44.316Z,112.55
2023-04-10T07:32:46.055Z,107.30
2023-04-10T07:34:48.707Z,91.80
2023-04-10T07:36:50.119Z,98.35
2023-04-10T07:38:51.699Z,110.40
2023-04-10T07:40:56.395Z,98.68
2023-04-10T07:42:57.794Z,95.32
2023-04-10T07:44:59.462Z,95.30
2023-04-10T07:47:01.307Z,105.57
2023-04-10T07:49:02.765Z,99.25
2023-04-10T07:51:04.307Z,89.43
2023-04-10T07:53:08.210Z,67.03
2023-04-10T07:55:09.882Z,85.45
2023-04-10T07:57:11.353Z,85.97
2023-04-10T07:59:12.873Z,66.95
2023-04-10T08:01:16.904Z,71.18
2023-04-10T08:03:18.643Z,79.13
2023-04-10T08:05:20.468Z,79.20
2023-04-10T08:07:25.159Z,72.80
2023-04-10T08:09:26.826Z,49.13
2023-04-10T08:11:32.182Z,61.75
2023-04-10T08:13:33.965Z,65.97
2023-04-10T08:15:35.736Z,63.97
2023-04-10T08:17:37.497Z,61.85
2023-04-10T08:19:38.916Z,61.08
2023-04-10T08:21:40.353Z,61.72
2023-04-10T08:23:41.957Z,70.93
2023-04-10T08:25:43.354Z,57.53
2023-04-10T08:27:45.024Z,57.33
2023-04-10T08:29:46.438Z,52.00
2023-04-10T08:31:47.817Z,51.53
2023-04-10T08:33:49.282Z,38.72
2023-04-10T08:35:50.710Z,26.98
2023-04-10T08:38:07.678Z,40.67
2023-04-10T08:40:13.892Z,37.10
2023-04-10T08:42:15.662Z,34.30
2023-04-10T08:44:17.577Z,31.75
2023-04-10T08:46:20.144Z,30.60
2023-04-10T08:48:21.738Z,33.88
2023-04-10T08:50:23.236Z,31.67
2023-04-10T08:52:25.490Z,40.38
2023-04-10T08:54:31.289Z,33.20
2023-04-10T08:56:33.816Z,42.80
2023-04-10T08:58:35.851Z,36.67
2023-04-10T09:00:40.446Z,33.92
2023-04-10T09:02:42.790Z,35.65
2023-04-10T09:04:47.600Z,36.30
2023-04-10T09:06:49.073Z,30.15
2023-04-10T09:08:50.504Z,29.75
2023-04-10T09:10:54.380Z,27.30
2023-04-10T09:12:56.997Z,31.65
2023-04-10T09:14:59.289Z,32.00
2023-04-10T09:17:19.968Z,30.42
2023-04-10T09:19:31.307Z,32.45
2023-04-10T09:21:32.725Z,30.38
2023-04-10T09:23:34.128Z,30.58
2023-04-10T09:25:36.494Z,30.02
2023-04-10T09:27:40.083Z,35.25
2023-04-10T09:29:42.244Z,36.65
2023-04-10T09:31:46.861Z,35.70
2023-04-10T09:33:48.310Z,34.03
2023-04-10T09:35:51.149Z,32.10
2023-04-10T09:37:52.679Z,35.78
2023-04-10T09:39:54.084Z,33.03
2023-04-10T09:41:55.706Z,32.17
2023-04-10T09:44:12.626Z,28.92
2023-04-10T09:46:26.082Z,30.45
2023-04-10T09:48:27.800Z,27.83
2023-04-10T09:50:40.359Z,22.95
2023-04-10T09:52:42.004Z,25.42
2023-04-10T09:54:43.433Z,22.25
2023-04-10T09:56:46.016Z,23.27
2023-04-10T09:58:47.704Z,21.88
2023-04-10T10:00:49.387Z,25.77
2023-04-10T10:02:51.565Z,20.10
2023-04-10T10:04:53.417Z,26.73
2023-04-10T10:06:55.019Z,30.90
2023-04-10T10:08:56.798Z,24.30
2023-04-10T10:11:00.376Z,18.65
2023-04-10T10:13:02.166Z,18.40
2023-04-10T10:15:23.938Z,19.42
2023-04-10T10:17:29.571Z,19.73
2023-04-10T10:19:31.065Z,18.98
2023-04-10T10:21:34.341Z,16.58
2023-04-10T10:23:36.622Z,17.92
2023-04-10T10:25:38.848Z,18.80
2023-04-10T10:27:41.654Z,16.23
2023-04-10T10:29:44.263Z,16.13
2023-04-10T10:31:47.130Z,16.40
2023-04-10T10:33:50.602Z,16.77
2023-04-10T10:35:52.938Z,16.70
2023-04-10T10:37:54.706Z,16.08
2023-04-10T10:40:02.278Z,15.60
2023-04-10T10:42:12.954Z,16.15
2023-04-10T10:44:18.633Z,17.38
2023-04-10T10:46:34.103Z,16.13
2023-04-10T10:48:35.705Z,16.73
2023-04-10T10:50:57.449Z,19.35
2023-04-10T10:53:01.297Z,22.13
2023-04-10T10:55:21.422Z,19.17
2023-04-10T10:57:45.907Z,22.73
2023-04-10T10:59:47.452Z,19.33
2023-04-10T11:02:09.147Z,22.65
2023-04-10T11:04:31.296Z,21.92
2023-04-10T11:06:48.907Z,21.17
2023-04-10T11:08:53.952Z,16.20
2023-04-10T11:11:08.559Z,17.63
2023-04-10T11:13:19.603Z,15.10
2023-04-10T11:15:25.416Z,13.35
2023-04-10T11:17:45.547Z,16.27
2023-04-10T11:20:02.387Z,13.23
2023-04-10T11:22:08.419Z,14.35
2023-04-10T11:24:10.201Z,16.10
2023-04-10T11:26:11.813Z,15.52
2023-04-10T11:28:31.639Z,12.40
2023-04-10T11:30:34.401Z,12.02
2023-04-10T11:32:42.312Z,10.93
2023-04-10T11:34:44.274Z,11.45
2023-04-10T11:36:45.701Z,13.98
2023-04-10T11:38:54.245Z,13.65
2023-04-10T11:40:56.457Z,9.80
2023-04-10T11:43:12.541Z,14.48
2023-04-10T11:45:23.906Z,12.75
2023-04-10T11:47:25.393Z,13.40
2023-04-10T11:49:28.187Z,13.60
2023-04-10T11:51:31.138Z,10.32
2023-04-10T11:53:32.567Z,10.18
2023-04-10T11:55:38.341Z,12.23
2023-04-10T11:57:39.730Z,14.32
2023-04-10T11:59:41.122Z,11.30
2023-04-10T12:01:43.377Z,9.02
2023-04-10T12:03:45.304Z,11.77
2023-04-10T12:05:47.420Z,11.48
2023-04-10T12:07:49.689Z,14.45
2023-04-10T12:09:59.885Z,10.43
2023-04-10T12:12:05.249Z,11.82
2023-04-10T12:14:06.805Z,8.85
2023-04-10T12:16:09.575Z,7.80
2023-04-10T12:18:11.635Z,7.25
2023-04-10T12:20:14.838Z,9.57
2023-04-10T12:22:16.376Z,8.75
2023-04-10T12:24:36.404Z,9.15
2023-04-10T12:26:38.043Z,7.55
2023-04-10T12:28:40.481Z,5.32
2023-04-10T12:30:46.554Z,6.68
2023-04-10T12:32:51.400Z,6.82
2023-04-10T12:34:54.047Z,9.30
2023-04-10T12:36:55.525Z,6.13
2023-04-10T12:38:57.705Z,6.90
2023-04-10T12:40:59.920Z,6.95
2023-04-10T12:43:01.397Z,6.50
2023-04-10T12:45:03.551Z,6.50
2023-04-10T12:47:04.988Z,7.93
2023-04-10T12:49:13.739Z,7.07
2023-04-10T12:51:15.427Z,6.00
2023-04-10T12:53:16.899Z,7.22
2023-04-10T12:55:19.913Z,7.15
2023-04-10T12:57:27.685Z,10.00
2023-04-10T12:59:29.879Z,7.93
2023-04-10T13:01:31.730Z,7.55
2023-04-10T13:03:36.940Z,8.80
2023-04-10T13:05:38.993Z,11.32
2023-04-10T13:07:41.181Z,10.82
2023-04-10T13:09:42.831Z,6.38
2023-04-10T13:11:45.259Z,8.70
2023-04-10T13:13:48.676Z,6.38
2023-04-10T13:15:50.165Z,6.10
2023-04-10T13:17:51.599Z,8.63
2023-04-10T13:19:53.483Z,6.95
2023-04-10T13:21:54.994Z,8.35
2023-04-10T13:23:56.641Z,6.18
2023-04-10T13:25:59.046Z,5.10
2023-04-10T13:28:01.488Z,11.98
2023-04-10T13:30:03.113Z,4.32
2023-04-10T13:32:06.025Z,5.68
2023-04-10T13:34:07.638Z,6.45
2023-04-10T13:36:09.127Z,6.97
2023-04-10T13:38:11.841Z,7.13
2023-04-10T13:40:13.357Z,5.80
2023-04-10T13:42:14.842Z,8.40
2023-04-10T13:44:16.421Z,7.88
2023-04-10T13:46:18.023Z,5.90
2023-04-10T13:48:24.373Z,7.28
2023-04-10T13:50:28.520Z,3.93
2023-04-10T13:52:29.963Z,6.65
2023-04-10T13:54:31.355Z,6.30
2023-04-10T13:56:32.816Z,5.55
2023-04-10T13:58:34.473Z,6.57
2023-04-10T14:00:36.016Z,4.68
2023-04-10T14:02:37.645Z,8.40
2023-04-10T14:04:39.081Z,6.57
2023-04-10T14:06:40.894Z,9.35
2023-04-10T14:08:42.343Z,7.43
2023-04-10T14:10:43.793Z,9.02
2023-04-10T14:12:45.209Z,10.73
2023-04-10T14:14:46.687Z,10.27
2023-04-10T14:16:48.305Z,7.05
2023-04-10T14:18:49.791Z,8.13
2023-04-10T14:20:51.306Z,8.77
2023-04-10T14:22:52.724Z,3.75
2023-04-10T14:25:05.124Z,4.95
2023-04-10T14:27:13.170Z,6.70
2023-04-10T14:29:18.187Z,20.58
2023-04-10T14:31:21.699Z,36.97
2023-04-10T14:33:23.112Z,5.07
2023-04-10T14:35:24.584Z,5.00
2023-04-10T14:37:26.059Z,7.18
2023-04-10T14:39:27.802Z,8.45
2023-04-10T14:41:29.770Z,6.18
2023-04-10T14:43:31.212Z,6.60
2023-04-10T14:45:32.909Z,6.40
2023-04-10T14:47:35.971Z,4.93
2023-04-10T14:49:37.786Z,7.85
2023-04-10T14:51:39.276Z,5.22
2023-04-10T14:53:40.671Z,6.93
2023-04-10T14:55:42.115Z,6.90
2023-04-10T14:57:43.551Z,4.53
2023-04-10T14:59:45.524Z,5.35
2023-04-10T15:01:47.051Z,6.07
2023-04-10T15:03:49.196Z,5.65
2023-04-10T15:05:58.351Z,4.28
2023-04-10T15:07:59.847Z,5.50
2023-04-10T15:10:01.277Z,36.15
2023-04-10T15:12:03.013Z,23.75
2023-04-10T15:14:04.517Z,40.90
2023-04-10T15:16:06.506Z,13.07
2023-04-10T15:18:08.041Z,13.23
2023-04-10T15:20:09.822Z,26.60
2023-04-10T15:22:11.326Z,16.88
2023-04-10T15:24:12.702Z,6.63
2023-04-10T15:26:15.055Z,8.02
2023-04-10T15:28:16.481Z,9.70
2023-04-10T15:30:17.920Z,5.03
2023-04-10T15:32:19.467Z,7.63
2023-04-10T15:34:20.907Z,9.85
2023-04-10T15:36:22.367Z,14.52
2023-04-10T15:38:26.193Z,16.55
2023-04-10T15:40:28.385Z,20.38
2023-04-10T15:42:30.347Z,11.57
2023-04-10T15:44:32.230Z,15.18
2023-04-10T15:46:34.230Z,42.38
2023-04-10T15:48:35.881Z,12.40
2023-04-10T15:50:37.396Z,8.15
2023-04-10T15:52:38.952Z,10.82
2023-04-10T15:54:40.539Z,6.43
2023-04-10T15:56:42.255Z,7.78
2023-04-10T15:58:43.722Z,4.85
2023-04-10T16:00:45.174Z,10.32
2023-04-10T16:02:47.128Z,4.93
2023-04-10T16:04:48.815Z,4.07
2023-04-10T16:06:50.555Z,4.72
2023-04-10T16:08:52.501Z,12.50
2023-04-10T16:10:54.034Z,8.50
2023-04-10T16:12:56.547Z,11.10
2023-04-10T16:14:58.214Z,10.55
2023-04-10T16:16:59.717Z,13.20
2023-04-10T16:19:01.942Z,8.80
2023-04-10T16:21:07.741Z,11.23
2023-04-10T16:23:09.318Z,10.40
2023-04-10T16:25:10.868Z,13.82
2023-04-10T16:27:12.338Z,11.80
2023-04-10T16:29:13.853Z,12.50
2023-04-10T16:31:15.542Z,12.63
2023-04-10T16:33:17.025Z,12.85
2023-04-10T16:35:19.288Z,12.40
2023-04-10T16:37:20.869Z,19.38
2023-04-10T16:39:22.415Z,63.17
2023-04-10T16:41:23.951Z,13.10
2023-04-10T16:43:25.474Z,20.38
2023-04-10T16:45:27.011Z,22.60
2023-04-10T16:47:28.703Z,18.00
2023-04-10T16:49:30.451Z,29.92
2023-04-10T16:51:31.971Z,8.70
2023-04-10T16:53:33.822Z,10.27
2023-04-10T16:55:35.221Z,36.40
2023-04-10T16:57:36.690Z,14.15
2023-04-10T16:59:38.106Z,22.60
2023-04-10T17:01:40.011Z,8.57
2023-04-10T17:03:41.661Z,17.05
2023-04-10T17:05:43.248Z,27.10
2023-04-10T17:07:45.237Z,17.15
2023-04-10T17:09:46.682Z,14.73
2023-04-10T17:11:48.096Z,12.02
2023-04-10T17:13:49.533Z,12.20
2023-04-10T17:15:51.046Z,15.27
2023-04-10T17:17:52.644Z,11.23
2023-04-10T17:19:54.682Z,47.97
2023-04-10T17:21:56.182Z,14.85
2023-04-10T17:23:57.950Z,20.00
2023-04-10T17:25:59.373Z,29.92
2023-04-10T17:28:00.808Z,24.80
2023-04-10T17:30:02.223Z,22.55
2023-04-10T17:32:03.743Z,26.08
2023-04-10T17:34:05.232Z,17.42
2023-04-10T17:36:06.863Z,23.17
2023-04-10T17:38:08.275Z,25.92
2023-04-10T17:40:10.799Z,26.42
2023-04-10T17:42:12.364Z,26.63
2023-04-10T17:44:13.734Z,30.80
2023-04-10T17:46:15.649Z,21.95
2023-04-10T17:48:18.392Z,15.73
2023-04-10T17:50:20.075Z,18.25
2023-04-10T17:52:21.507Z,17.33
2023-04-10T17:54:22.881Z,18.63
2023-04-10T17:56:24.323Z,16.90
2023-04-10T17:58:25.769Z,15.85
2023-04-10T18:00:27.253Z,25.52
2023-04-10T18:02:28.752Z,29.90
2023-04-10T18:04:30.272Z,71.82
2023-04-10T18:06:31.985Z,45.20
2023-04-10T18:08:35.312Z,150.60
2023-04-10T18:10:36.882Z,137.55
2023-04-10T18:12:38.362Z,58.72
2023-04-10T18:14:39.799Z,47.50
2023-04-10T18:16:41.354Z,60.25
2023-04-10T18:18:43.012Z,179.55
2023-04-10T18:20:44.441Z,86.93
2023-04-10T18:22:47.461Z,90.20
2023-04-10T18:24:48.939Z,208.30
2023-04-10T18:26:50.455Z,209.70
2023-04-10T18:28:52.251Z,169.93
2023-04-10T18:30:56.686Z,114.72
2023-04-10T18:32:58.198Z,143.52
2023-04-10T18:35:00.042Z,72.78
2023-04-10T18:37:01.630Z,71.18
2023-04-10T18:39:03.302Z,194.57
2023-04-10T18:41:04.866Z,66.40
2023-04-10T18:43:06.475Z,105.75
2023-04-10T18:45:08.313Z,52.30
2023-04-10T18:47:11.149Z,38.25
2023-04-10T18:49:12.714Z,74.80
2023-04-10T18:51:14.187Z,76.43
2023-04-10T18:53:15.590Z,35.95
2023-04-10T18:55:17.026Z,73.30
2023-04-10T18:57:18.414Z,85.18
2023-04-10T18:59:19.949Z,92.40
2023-04-10T19:01:21.504Z,122.10
2023-04-10T19:03:23.002Z,125.95
2023-04-10T19:05:24.532Z,124.35
2023-04-10T19:07:25.937Z,133.02
2023-04-10T19:09:27.638Z,171.23
2023-04-10T19:11:29.053Z,197.82
2023-04-10T19:13:31.248Z,202.25
2023-04-10T19:15:32.772Z,298.52
2023-04-10T19:17:34.254Z,299.25
2023-04-10T19:19:35.710Z,159.13
2023-04-10T19:21:37.183Z,178.23
2023-04-10T19:23:38.584Z,259.02
2023-04-10T19:25:39.993Z,128.45
2023-04-10T19:27:41.419Z,90.28
2023-04-10T19:29:43.020Z,79.72
2023-04-10T19:31:44.580Z,62.17
2023-04-10T19:33:45.991Z,64.45
2023-04-10T19:35:47.422Z,54.35
2023-04-10T19:37:49.786Z,50.00
2023-04-10T19:39:51.196Z,66.18
2023-04-10T19:41:52.602Z,70.03
2023-04-10T19:43:54.381Z,75.78
2023-04-10T19:45:56.324Z,77.57
2023-04-10T19:47:57.791Z,88.88
2023-04-10T19:50:00.452Z,164.57
2023-04-10T19:52:01.957Z,82.88
2023-04-10T19:54:03.467Z,82.60
2023-04-10T19:56:05.224Z,86.88
2023-04-10T19:58:08.696Z,90.70
2023-04-10T20:00:12.605Z,74.07
2023-04-10T20:02:15.812Z,86.85
2023-04-10T20:04:17.520Z,85.93
2023-04-10T20:06:21.507Z,84.50
2023-04-10T20:08:23.007Z,104.65
2023-04-10T20:10:24.479Z,139.48
2023-04-10T20:12:25.862Z,203.30
2023-04-10T20:14:27.411Z,171.13
2023-04-10T20:16:28.923Z,126.88
2023-04-10T20:18:31.442Z,115.40
2023-04-10T20:20:32.871Z,83.35
2023-04-10T20:22:34.300Z,75.78
2023-04-10T20:24:35.779Z,78.60
2023-04-10T20:26:37.251Z,81.88
2023-04-10T20:28:39.507Z,89.00
2023-04-10T20:30:40.987Z,99.32
2023-04-10T20:32:42.441Z,118.85
2023-04-10T20:34:43.938Z,131.55
2023-04-10T20:36:45.437Z,175.32
2023-04-10T20:38:46.851Z,190.60
2023-04-10T20:40:48.290Z,176.30
2023-04-10T20:42:49.798Z,173.60
2023-04-10T20:44:51.336Z,162.07
2023-04-10T20:46:52.882Z,160.75
2023-04-10T20:48:59.301Z,151.85
2023-04-10T20:51:00.816Z,155.25
2023-04-10T20:53:02.294Z,147.80
2023-04-10T20:55:03.837Z,221.02
2023-04-10T20:57:06.057Z,185.77
2023-04-10T20:59:07.463Z,190.95
2023-04-10T21:01:10.142Z,193.68
2023-04-10T21:03:11.930Z,221.55
2023-04-10T21:05:13.513Z,305.17
2023-04-10T21:07:15.005Z,271.05
2023-04-10T21:09:16.433Z,244.25
2023-04-10T21:11:19.753Z,357.33
2023-04-10T21:13:21.181Z,334.13
2023-04-10T21:15:22.798Z,297.88
2023-04-10T21:17:24.250Z,219.70
2023-04-10T21:19:25.749Z,166.93
2023-04-10T21:21:27.460Z,162.13
2023-04-10T21:23:28.900Z,172.40
2023-04-10T21:25:30.775Z,174.52
2023-04-10T21:27:32.239Z,203.07
2023-04-10T21:29:33.650Z,210.77
2023-04-10T21:31:35.156Z,171.73
2023-04-10T21:33:36.692Z,157.05
2023-04-10T21:35:38.151Z,164.63
2023-04-10T21:37:39.633Z,165.05
2023-04-10T21:39:41.423Z,181.18
2023-04-10T21:41:43.866Z,184.80
2023-04-10T21:43:45.286Z,191.43
2023-04-10T21:45:46.889Z,167.85
2023-04-10T21:47:48.420Z,131.88
2023-04-10T21:49:49.903Z,143.60
2023-04-10T21:51:51.505Z,126.07
2023-04-10T21:53:52.928Z,171.65
2023-04-10T21:55:54.414Z,133.75
2023-04-10T21:57:56.386Z,122.65
2023-04-10T21:59:57.801Z,94.25
2023-04-10T22:01:59.334Z,109.68
2023-04-10T22:04:01.050Z,148.75
2023-04-10T22:06:02.849Z,106.07
2023-04-10T22:08:04.237Z,120.28
2023-04-10T22:10:06.282Z,210.30
2023-04-10T22:12:07.721Z,237.15
2023-04-10T22:14:17.100Z,268.70
2023-04-10T22:16:20.283Z,316.73
2023-04-10T22:18:21.703Z,216.40
2023-04-10T22:20:23.153Z,261.85
2023-04-10T22:22:24.615Z,258.75
2023-04-10T22:24:26.139Z,296.00
2023-04-10T22:26:27.527Z,474.00
2023-04-10T22:28:29.138Z,442.63
2023-04-10T22:30:30.582Z,275.95
2023-04-10T22:32:32.311Z,219.13
2023-04-10T22:34:33.880Z,257.83
2023-04-10T22:36:35.841Z,159.52
2023-04-10T22:38:37.334Z,155.20
2023-04-10T22:40:38.711Z,84.55
2023-04-10T22:42:40.656Z,205.40
2023-04-10T22:44:42.108Z,191.00
2023-04-10T22:46:43.627Z,232.20
2023-04-10T22:48:46.869Z,208.57
2023-04-10T22:50:48.467Z,311.00
2023-04-10T22:52:50.078Z,253.40
2023-04-10T22:54:51.501Z,206.85
2023-04-10T22:56:52.897Z,261.25
2023-04-10T22:58:54.574Z,413.00
2023-04-10T23:00:56.273Z,251.95
2023-04-10T23:02:57.809Z,422.10
2023-04-10T23:04:59.407Z,244.57
2023-04-10T23:07:00.810Z,484.00
2023-04-10T23:09:02.218Z,224.27
2023-04-10T23:11:03.929Z,342.73
2023-04-10T23:13:05.318Z,245.57
2023-04-10T23:15:07.779Z,444.05
2023-04-10T23:17:09.193Z,279.48
2023-04-10T23:19:10.675Z,192.75
2023-04-10T23:21:12.191Z,311.05
2023-04-10T23:23:14.027Z,239.25
2023-04-10T23:25:15.861Z,181.40
2023-04-10T23:27:17.287Z,162.35
2023-04-10T23:29:18.730Z,199.57
2023-04-10T23:31:20.227Z,271.63
2023-04-10T23:33:21.758Z,111.75
2023-04-10T23:35:23.314Z,89.65
2023-04-10T23:37:25.041Z,66.13
2023-04-10T23:39:26.471Z,59.15
2023-04-10T23:41:27.900Z,31.35
2023-04-10T23:43:29.305Z,43.80
2023-04-10T23:45:30.729Z,37.78
2023-04-10T23:47:32.257Z,42.00
2023-04-10T23:49:36.579Z,47.13
2023-04-10T23:51:37.991Z,106.57
2023-04-10T23:53:39.408Z,65.82
2023-04-10T23:55:40.881Z,59.33
2023-04-10T23:57:42.361Z,63.45
2023-04-10T23:59:43.776Z,107.28
